createdAt,value
2023-01-27T00:04:07.473Z,98.77
2023-01-27T00:09:11.391Z,99.33
2023-01-27T00:14:14.004Z,99.33
2023-01-27T00:19:19.868Z,99.01
2023-01-27T00:24:41.350Z,99.04
2023-01-27T00:29:44.007Z,99.13
2023-01-27T00:34:46.702Z,99.02
2023-01-27T00:39:49.448Z,99.21
2023-01-27T00:45:10.769Z,98.94
2023-01-27T00:50:14.175Z,99.04
2023-01-27T00:55:18.357Z,99.30
2023-01-27T01:00:21.568Z,99.07
2023-01-27T01:05:24.689Z,98.76
2023-01-27T01:10:27.339Z,98.33
2023-01-27T01:15:30.065Z,98.37
2023-01-27T01:20:37.897Z,98.12
2023-01-27T01:25:41.446Z,98.09
2023-01-27T01:30:44.148Z,98.78
2023-01-27T01:35:46.795Z,99.25
2023-01-27T01:40:49.510Z,98.85
2023-01-27T01:45:54.799Z,98.50
2023-01-27T01:51:19.566Z,98.42
2023-01-27T01:56:46.064Z,98.10
2023-01-27T02:01:50.645Z,97.85
2023-01-27T02:07:09.784Z,98.10
2023-01-27T02:12:12.692Z,98.26
2023-01-27T02:17:15.804Z,98.13
2023-01-27T02:22:43.341Z,98.41
2023-01-27T02:27:45.946Z,98.12
2023-01-27T02:32:48.632Z,97.62
2023-01-27T02:37:52.176Z,97.70
2023-01-27T02:42:56.948Z,97.73
2023-01-27T02:47:59.766Z,97.74
2023-01-27T02:53:02.463Z,97.73
2023-01-27T02:58:05.156Z,97.90
2023-01-27T03:03:07.835Z,97.97
2023-01-27T03:08:10.483Z,97.70
2023-01-27T03:13:13.086Z,97.27
2023-01-27T03:18:16.437Z,97.18
2023-01-27T03:23:20.540Z,97.30
2023-01-27T03:28:23.189Z,97.47
2023-01-27T03:33:25.981Z,96.90
2023-01-27T03:38:46.469Z,96.57
2023-01-27T03:44:08.062Z,96.31
2023-01-27T03:49:10.719Z,95.94
2023-01-27T03:54:13.330Z,96.40
2023-01-27T03:59:15.903Z,96.66
2023-01-27T04:04:36.393Z,96.63
2023-01-27T04:09:39.053Z,96.77
2023-01-27T04:14:44.396Z,97.08
2023-01-27T04:19:47.836Z,96.65
2023-01-27T04:24:50.415Z,96.16
2023-01-27T04:29:53.428Z,96.81
2023-01-27T04:34:56.149Z,96.92
2023-01-27T04:39:58.737Z,96.79
2023-01-27T04:45:01.333Z,96.87
2023-01-27T04:50:04.864Z,96.60
2023-01-27T04:55:08.185Z,96.58
2023-01-27T05:00:13.710Z,96.43
2023-01-27T05:05:17.290Z,96.38
2023-01-27T05:10:19.897Z,96.67
2023-01-27T05:15:24.506Z,96.67
2023-01-27T05:20:27.663Z,96.54
2023-01-27T05:25:30.220Z,96.27
2023-01-27T05:30:32.881Z,96.72
2023-01-27T05:35:36.948Z,96.44
2023-01-27T05:40:39.642Z,96.74
2023-01-27T05:45:42.223Z,96.66
2023-01-27T05:50:54.495Z,97.23
2023-01-27T05:55:58.024Z,97.07
2023-01-27T06:01:24.757Z,96.82
2023-01-27T06:06:30.421Z,97.09
2023-01-27T06:11:33.056Z,96.91
2023-01-27T06:16:35.828Z,96.75
2023-01-27T06:21:38.497Z,96.61
2023-01-27T06:26:41.117Z,96.09
2023-01-27T06:31:43.747Z,96.33
2023-01-27T06:36:46.581Z,96.64
2023-01-27T06:41:49.819Z,96.40
2023-01-27T06:46:53.426Z,96.87
2023-01-27T06:51:56.070Z,97.08
2023-01-27T06:56:58.908Z,96.51
2023-01-27T07:02:02.327Z,96.27
2023-01-27T07:07:05.534Z,96.17
2023-01-27T07:12:08.507Z,95.91
2023-01-27T07:17:11.125Z,96.12
2023-01-27T07:22:13.921Z,96.18
2023-01-27T07:27:16.811Z,95.71
2023-01-27T07:32:19.564Z,95.29
2023-01-27T07:37:22.287Z,95.43
2023-01-27T07:42:24.957Z,95.12
2023-01-27T07:47:27.551Z,94.87
2023-01-27T07:52:30.379Z,94.55
2023-01-27T07:57:33.417Z,93.96
2023-01-27T08:02:37.186Z,94.25
2023-01-27T08:07:39.896Z,93.94
2023-01-27T08:12:43.597Z,93.94
2023-01-27T08:17:56.719Z,94.00
2023-01-27T08:22:59.454Z,93.59
2023-01-27T08:28:02.476Z,93.72
2023-01-27T08:33:05.081Z,93.18
2023-01-27T08:38:09.297Z,93.21
2023-01-27T08:43:13.224Z,93.46
2023-01-27T08:48:15.794Z,93.63
2023-01-27T08:53:18.501Z,93.80
2023-01-27T08:58:21.662Z,93.67
2023-01-27T09:03:25.897Z,93.18
2023-01-27T09:08:29.305Z,92.93
2023-01-27T09:13:31.920Z,92.88
2023-01-27T09:18:34.940Z,93.05
2023-01-27T09:23:38.604Z,92.87
2023-01-27T09:28:41.367Z,92.54
2023-01-27T09:33:45.174Z,91.80
2023-01-27T09:39:00.600Z,91.99
2023-01-27T09:44:27.916Z,91.87
2023-01-27T09:49:36.465Z,91.98
2023-01-27T09:54:58.977Z,91.85
2023-01-27T10:00:32.554Z,92.01
2023-01-27T10:05:38.206Z,92.09
2023-01-27T10:11:02.864Z,92.18
2023-01-27T10:16:11.038Z,91.80
2023-01-27T10:21:42.831Z,91.78
2023-01-27T10:27:01.468Z,91.40
2023-01-27T10:32:43.993Z,91.14
2023-01-27T10:38:14.344Z,90.29
2023-01-27T10:43:38.832Z,90.43
2023-01-27T10:48:51.059Z,90.07
2023-01-27T10:54:18.432Z,89.95
2023-01-27T10:59:33.041Z,89.89
2023-01-27T11:04:46.824Z,90.66
2023-01-27T11:10:03.217Z,90.73
2023-01-27T11:15:30.266Z,90.63
2023-01-27T14:53:43.932Z,88.69
2023-01-27T14:58:47.635Z,88.83
2023-01-27T15:04:12.220Z,88.92
2023-01-27T15:09:33.703Z,89.01
2023-01-27T15:15:11.017Z,89.19
2023-01-27T15:20:24.616Z,88.65
2023-01-27T15:25:52.738Z,88.41
2023-01-27T15:31:14.366Z,87.90
2023-01-27T15:36:38.477Z,86.97
2023-01-27T15:42:03.137Z,86.96
2023-01-27T15:47:15.091Z,86.60
2023-01-27T15:52:20.875Z,86.14
2023-01-27T15:57:38.020Z,86.35
2023-01-27T16:02:46.855Z,86.96
2023-01-27T16:08:05.049Z,87.28
2023-01-27T16:13:29.476Z,86.99
2023-01-27T16:19:00.878Z,87.14
2023-01-27T16:24:25.412Z,86.39
2023-01-27T16:29:57.254Z,86.30
2023-01-27T16:35:04.397Z,86.08
2023-01-27T16:40:16.172Z,85.76
2023-01-27T16:45:22.400Z,85.43
2023-01-27T16:50:50.301Z,84.61
2023-01-27T16:56:17.090Z,85.26
2023-01-27T17:01:28.668Z,85.66
2023-01-27T17:06:31.675Z,85.57
2023-01-27T17:11:35.565Z,85.27
2023-01-27T17:16:43.521Z,85.27
2023-01-27T17:21:58.140Z,85.46
2023-01-27T17:27:05.682Z,85.17
2023-01-27T17:32:39.027Z,85.39
2023-01-27T17:37:44.919Z,85.53
2023-01-27T17:42:49.039Z,85.35
2023-01-27T17:48:01.681Z,85.31
2023-01-27T17:53:11.755Z,85.44
2023-01-27T17:58:25.159Z,85.00
2023-01-27T18:03:34.451Z,83.85
2023-01-27T18:08:40.700Z,83.78
2023-01-27T18:13:43.567Z,84.45
2023-01-27T18:18:47.521Z,84.19
2023-01-27T18:23:57.994Z,84.62
2023-01-27T18:29:01.827Z,84.74
2023-01-27T18:34:04.648Z,84.69
2023-01-27T18:39:32.468Z,84.90
2023-01-27T18:44:35.806Z,84.59
2023-01-27T18:49:38.473Z,84.99
2023-01-27T18:54:41.735Z,84.89
2023-01-27T18:59:44.432Z,84.71
2023-01-27T19:04:47.270Z,84.82
2023-01-27T19:09:49.868Z,84.93
2023-01-27T19:14:52.481Z,84.79
2023-01-27T19:19:55.199Z,84.39
2023-01-27T19:24:57.762Z,84.34
2023-01-27T19:30:21.615Z,84.50
2023-01-27T19:35:26.306Z,84.62
2023-01-27T19:40:29.919Z,84.67
2023-01-27T19:45:33.019Z,84.44
2023-01-27T19:50:35.672Z,84.45
2023-01-27T19:55:38.508Z,84.45
2023-01-27T20:00:41.119Z,84.43
2023-01-27T20:05:44.480Z,84.45
2023-01-27T20:10:47.408Z,84.30
2023-01-27T20:15:50.733Z,84.46
2023-01-27T20:20:53.292Z,84.34
2023-01-27T20:25:56.513Z,84.56
2023-01-27T20:30:59.217Z,85.21
2023-01-27T20:36:05.487Z,84.82
2023-01-27T20:41:10.422Z,85.06
2023-01-27T20:46:16.242Z,85.49
2023-01-27T20:51:19.118Z,85.02
2023-01-27T20:56:23.730Z,84.80
2023-01-27T21:01:26.707Z,84.95
2023-01-27T21:06:29.847Z,84.94
2023-01-27T21:11:33.106Z,84.84
2023-01-27T21:16:36.343Z,85.14
2023-01-27T21:21:39.161Z,84.69
2023-01-27T21:26:42.056Z,84.72
2023-01-27T21:31:44.697Z,84.52
2023-01-27T21:36:47.443Z,84.52
2023-01-27T21:41:55.883Z,85.00
2023-01-27T21:46:58.825Z,84.77
2023-01-27T21:52:01.613Z,84.64
2023-01-27T21:57:04.220Z,84.26
2023-01-27T22:02:11.123Z,84.57
2023-01-27T22:07:16.183Z,84.59
2023-01-27T22:12:18.824Z,84.67
2023-01-27T22:17:21.719Z,84.71
2023-01-27T22:22:24.280Z,84.53
2023-01-27T22:27:26.969Z,84.23
2023-01-27T22:32:29.615Z,84.23
2023-01-27T22:37:34.461Z,84.38
2023-01-27T22:42:39.728Z,84.20
2023-01-27T22:47:42.647Z,84.37
2023-01-27T22:52:45.561Z,84.30
2023-01-27T22:57:49.248Z,84.35
2023-01-27T23:02:51.822Z,84.16
2023-01-27T23:07:54.672Z,83.87
2023-01-27T23:12:57.226Z,83.74
2023-01-27T23:17:59.817Z,83.96
2023-01-27T23:23:02.439Z,84.05
2023-01-27T23:28:05.106Z,84.01
2023-01-27T23:33:07.662Z,83.90
2023-01-27T23:38:26.365Z,83.75
2023-01-27T23:43:33.440Z,83.98
2023-01-27T23:48:36.014Z,83.86
2023-01-27T23:53:38.550Z,83.97
2023-01-27T23:58:42.160Z,83.74
